Valentines, VA (23887)

5:28 AM EDT on September 02, 2014 (GMT -0400)
Roanoke Rapids Lake | Change Station
CLOSE
Current Station
Personal Weather Station
Location: Gaston, NC
Elevation: 190 ft
Nearby Weather Stations

Elev 190 ft 36.49 °N, 77.74 °W | Updated 2 seconds ago

Clear
Clear
76.3 °F
Feels Like 76 °F
N
0.7
Wind Variable Wind from NNW
Gusts 1.6 mph

Today
High -- | Low -- °F
--% Chance of Precip.
Yesterday
High -- | Low -- °F
Precip. -- in
6:43 AM 7:37 PM
Waxing Crescent, 49% visible
Pressure 30.02 in
Visibility 4.0 miles
Clouds Clear
Heat Index 76 °F
Dew Point 75 °F
Humidity 97%
Rainfall 0.00 in
Snow Depth Not available.
UV 0 out of 12
Pollen 9.40 out of 12
Air Quality Not available.
Flu Activity Not available.
METAR KIXA 020915Z AUTO 22003KT 4SM BR CLR 22/22 A3002 RMK AO2

More Conditions Fewer Conditions

Pressure 30.02 in
Visibility 4.0 miles
Clouds Clear
Heat Index 76 °F
Dew Point 75 °F
Humidity 97%
Rainfall 0.00 in
Snow Depth Not available.
UV 0 out of 12
Pollen 9.40 out of 12
Air Quality Not available.
Flu Activity Not available.
METAR KIXA 020915Z AUTO 22003KT 4SM BR CLR 22/22 A3002 RMK AO2

More Conditions Fewer Conditions

10-Day Weather Forecast

Almanac

Astronomy

Sep. 02, 2014 Rise Set
Actual Time 6:43 AM EDT 7:37 PM EDT
Civil Twilight 6:16 AM EDT 8:04 PM EDT
Nautical Twilight 5:45 AM EDT 8:35 PM EDT
Astronomical Twilight 5:13 AM EDT 9:07 PM EDT
Moon 2:14 PM EDT No Moon Set
Length of Visible Light 13h 47m
Length of Day
12h 54m
Tomorrow will be 2m 15s shorter.
Waxing Crescent, 49% of the Moon is Illuminated
Today
Waxing Crescent
Sep 2
First Quarter
Sep 8
Full
Sep 15
Last Quarter
Sep 24
New

Today's Extremes

State Highs State Lows

Community

WunderPhotos

Upload Photos

1,749,587 photos uploaded!

WunderBlogs® & News

Nearby

Snow Depth

Station Depth Elevation
No new snow has been reported.

Earthquake Activity

City Distance Mag. Time & Date
No recent earthquake activity has been reported nearby.
Minimum magnitude displayed is 2.5.

Coastal Water Temperatures

Place Temperature
No Stations Reporting

Nearby Weather Stations